Airfield :







YOU CAN JOIN US ON...

 
LOGIN :

Register | Disclaimer

   EN    FR    IT 

 









Legend :    VFR   Marginal VFR   IFR   Intensive IFR   Very Intensive IFR
Visi :
Ceiling :
>= 8 km
>= 3000ft
5 to 8 km
1000 to 3000 ft
1500m to 5 km
500 to 1000 ft
800 to 1500m
200 to 500 ft
< 800m
< 200 ft
Symbols :   Thunderstorms  Fog  Heavy snow  Heavy precipitations  Wind > 20 kt






- Airport Elevation : 534 ft
- IATA code : PQI


KPQI - Northern Maine Regional Arpt At Presque Isle

CURRENT METAR :
  • 260156Z AUTO 14005KT 10SM OVC008 M03/M04 A3017 RMK AO2 SNB19E45 SLP255 P0000 T10331044

EXPIRED METARs :
  • 260056Z AUTO 14009KT 10SM OVC008 M03/M04 A3020 RMK AO2 SNE13B29E39 SLP262 P0000 T10281044
  • 252356Z AUTO 13006KT 9SM -SN OVC008 M03/M04 A3021 RMK AO2 SNE14B41 SLP266 P0000 60000 T10281039 11011 21028 58020

TAF KPQI
Valid from the 26 at 00:00 until the 27 at 00:00 UTC


252320Z 2600/2624 14005KT P6SM OVC009
FM260800 11005KT 2SM FZRA SCT005 OVC009
FM261400 11009KT 3SM -FZDZ BR OVC004 WS020/15040KT
FM262000 14003KT 2SM -FZDZ OVC003



MET'MAP, your aeronautical weather chart ! - Copyright ORBIFLY December 2007 - Disclaimer

ORBIFLY MET'MAP TEAM :

Programming & Development : Alexandra Zaïnal
Concept & original design : Baudouin d'Aumeries
Assistance for programming : Marc-Olivier Méhu
Technical & hardware support : Manuel Goepfert

Contact : metmap@orbifly.com




SOURCES & CREDITS :

   NOAA